Diaz, Arkansas
Current Conditions -  °F | °C
As of 5:56 PM on Monday 20 Oct 2014 (Local Time) from KM19 Reporting Station
Scattered Clouds Scattered Clouds  
Wind Chill: 22°   Ceiling: Unl
Heat Index: 22°   Visibility: 10mi
Dew Point: 14°   Wind: 8mph
Humidity: 61%   Direction: 200°SSW
Pressure: 30"   Gusts: NA
Location:  35.64°N, 91.27°W
Report Text: KM19 202256Z AUTO 20007KT 10SM SCT060 22/14 A3000 RMK AO2 T02160138 SLP158
Loading
Personal Weather Stations






























Interactive Weather Map
Tropical Storm Tracking
New forecast layout! Learn more

10-Day Weather Forecast

Advertisements
Track Severe Weather on mobile